createdAt,value
2023-05-22T00:03:18.981Z,36
2023-05-22T00:07:21.119Z,36
2023-05-22T00:13:24.915Z,36
2023-05-22T00:17:28.494Z,36
2023-05-22T00:19:30.129Z,36
2023-05-22T00:23:32.528Z,36
2023-05-22T00:27:35.548Z,36
2023-05-22T00:29:36.810Z,36
2023-05-22T00:33:40.141Z,36
2023-05-22T00:39:43.884Z,36
2023-05-22T00:43:46.404Z,36
2023-05-22T00:45:47.397Z,36
2023-05-22T00:49:49.893Z,36
2023-05-22T00:55:53.516Z,36
2023-05-22T00:59:55.607Z,36
2023-05-22T01:01:57.181Z,36
2023-05-22T01:06:00.737Z,36
2023-05-22T01:10:04.166Z,36
2023-05-22T01:12:05.479Z,36
2023-05-22T01:16:08.033Z,36
2023-05-22T01:22:12.701Z,36
2023-05-22T01:26:15.311Z,36
2023-05-22T01:28:16.249Z,36
2023-05-22T01:32:18.830Z,36
2023-05-22T01:38:23.714Z,36
2023-05-22T01:42:34.600Z,36
2023-05-22T01:44:27.873Z,36
2023-05-22T01:48:30.592Z,36
2023-05-22T01:52:32.599Z,36
2023-05-22T01:54:33.904Z,36
2023-05-22T01:58:37.417Z,36
2023-05-22T02:02:40.171Z,36
2023-05-22T02:04:41.715Z,36
2023-05-22T02:08:44.706Z,36
2023-05-22T02:10:46.509Z,36
2023-05-22T02:12:48.108Z,36
2023-05-22T02:14:49.390Z,36
2023-05-22T02:20:54.501Z,36
2023-05-22T02:26:58.945Z,36
2023-05-22T02:31:01.855Z,36
2023-05-22T02:37:05.370Z,36
2023-05-22T02:41:08.784Z,36
2023-05-22T02:45:10.935Z,36
2023-05-22T02:47:12.546Z,36
2023-05-22T02:51:15.944Z,36
2023-05-22T02:53:17.685Z,36
2023-05-22T02:55:19.553Z,36
2023-05-22T02:57:21.200Z,36
2023-05-22T03:03:25.052Z,36
2023-05-22T03:05:26.663Z,36
2023-05-22T03:09:29.637Z,36
2023-05-22T03:13:32.586Z,36
2023-05-22T03:19:36.768Z,36
2023-05-22T03:23:39.313Z,36
2023-05-22T03:25:40.410Z,36
2023-05-22T03:29:42.802Z,36
2023-05-22T03:33:45.567Z,36
2023-05-22T03:35:47.132Z,36
2023-05-22T03:39:49.136Z,36
2023-05-22T03:45:54.038Z,36
2023-05-22T03:51:57.801Z,36
2023-05-22T03:55:59.697Z,36
2023-05-22T04:02:03.167Z,36
2023-05-22T04:06:06.000Z,36
2023-05-22T04:08:07.601Z,36
2023-05-22T04:12:09.639Z,36
2023-05-22T04:16:13.220Z,36
2023-05-22T04:18:14.985Z,36
2023-05-22T04:22:17.643Z,36
2023-05-22T04:26:20.041Z,36
2023-05-22T04:28:21.377Z,36
2023-05-22T04:32:24.278Z,36
2023-05-22T04:34:25.840Z,36
2023-05-22T04:38:28.158Z,36
2023-05-22T04:44:31.894Z,36
2023-05-22T04:50:37.291Z,36
2023-05-22T04:54:40.562Z,36
2023-05-22T04:58:42.967Z,37
2023-05-22T05:00:44.783Z,37
2023-05-22T05:04:47.007Z,37
2023-05-22T05:08:50.409Z,37
2023-05-22T05:10:52.042Z,37
2023-05-22T05:14:54.756Z,37
2023-05-22T05:16:56.680Z,37
2023-05-22T05:18:58.333Z,37
2023-05-22T05:20:59.722Z,37
2023-05-22T05:27:03.563Z,37
2023-05-22T05:33:08.162Z,37
2023-05-22T05:37:10.981Z,37
2023-05-22T05:39:56.052Z,40
2023-05-22T05:41:57.619Z,40
2023-05-22T05:43:58.870Z,40
2023-05-22T05:48:01.925Z,40
2023-05-22T05:52:04.261Z,40
2023-05-22T05:54:05.864Z,40
2023-05-22T05:58:08.890Z,40
2023-05-22T06:04:12.200Z,40
2023-05-22T06:08:14.690Z,40
2023-05-22T06:10:16.439Z,41
2023-05-22T06:14:19.348Z,41
2023-05-22T06:20:23.658Z,41
2023-05-22T06:24:26.385Z,41
2023-05-22T06:26:27.163Z,41
2023-05-22T06:30:39.405Z,35
2023-05-22T06:34:31.996Z,7
2023-05-22T06:36:33.663Z,7
2023-05-22T06:40:37.552Z,257
2023-05-22T06:46:41.652Z,267
2023-05-22T06:50:44.347Z,267
2023-05-22T06:52:46.105Z,225
2023-05-22T06:56:48.637Z,275
2023-05-22T07:02:53.240Z,261
2023-05-22T07:06:55.045Z,261
2023-05-22T07:08:56.293Z,261
2023-05-22T07:13:00.542Z,261
2023-05-22T07:17:03.396Z,261
2023-05-22T07:19:04.418Z,173
2023-05-22T07:23:06.806Z,174
2023-05-22T07:29:11.505Z,252
2023-05-22T07:33:13.854Z,255
2023-05-22T07:35:15.504Z,255
2023-05-22T07:39:18.532Z,228
2023-05-22T07:45:22.936Z,246
2023-05-22T07:51:26.043Z,188
2023-05-22T07:55:28.331Z,265
2023-05-22T08:01:31.926Z,183
2023-05-22T08:05:35.148Z,198
2023-05-22T08:07:36.640Z,256
2023-05-22T08:11:39.861Z,131
2023-05-22T08:15:42.060Z,289
2023-05-22T08:17:43.327Z,245
2023-05-22T08:21:46.668Z,185
2023-05-22T08:27:49.772Z,168
2023-05-22T08:31:51.796Z,151
2023-05-22T08:33:53.513Z,173
2023-05-22T08:37:55.302Z,256
2023-05-22T08:43:58.938Z,219
2023-05-22T08:48:02.881Z,214
2023-05-22T08:50:04.370Z,241
2023-05-22T08:54:07.523Z,170
2023-05-22T08:58:11.028Z,201
2023-05-22T09:00:11.838Z,188
2023-05-22T09:04:14.418Z,131
2023-05-22T09:10:18.985Z,133
2023-05-22T09:14:20.746Z,199
2023-05-22T09:16:22.080Z,191
2023-05-22T09:20:24.604Z,208
2023-05-22T09:26:28.363Z,167
2023-05-22T09:32:32.552Z,252
2023-05-22T09:36:35.436Z,247
2023-05-22T09:42:38.276Z,199
2023-05-22T09:46:40.409Z,184
2023-05-22T09:48:41.159Z,204
2023-05-22T09:52:43.052Z,147
2023-05-22T09:56:45.164Z,189
2023-05-22T09:58:46.163Z,190
2023-05-22T10:02:49.239Z,326
2023-05-22T10:08:52.017Z,218
2023-05-22T10:12:54.479Z,195
2023-05-22T10:14:55.677Z,216
2023-05-22T10:18:57.861Z,144
2023-05-22T10:25:02.488Z,254
2023-05-22T10:29:05.296Z,82
2023-05-22T10:31:06.338Z,82
2023-05-22T10:35:08.252Z,280
2023-05-22T10:39:10.088Z,117
2023-05-22T10:41:11.586Z,117
2023-05-22T10:45:13.464Z,105
2023-05-22T10:49:16.254Z,318
2023-05-22T10:51:17.642Z,355
2023-05-22T10:55:20.686Z,102
2023-05-22T10:57:22.279Z,243
2023-05-22T10:59:23.163Z,248
2023-05-22T11:01:24.038Z,105
2023-05-22T11:07:27.097Z,303
2023-05-22T11:13:30.444Z,91
2023-05-22T11:17:32.590Z,155
2023-05-22T11:23:36.275Z,185
2023-05-22T11:27:39.092Z,105
2023-05-22T11:29:40.619Z,86
2023-05-22T11:33:42.653Z,100
2023-05-22T11:37:44.645Z,185
2023-05-22T11:39:46.052Z,168
2023-05-22T11:43:49.285Z,149
2023-05-22T11:49:53.233Z,120
2023-05-22T11:53:56.289Z,104
2023-05-22T11:55:57.590Z,55
2023-05-22T11:59:59.645Z,95
2023-05-22T12:06:02.877Z,116
2023-05-22T12:12:07.446Z,144
2023-05-22T12:16:09.937Z,88
2023-05-22T12:22:13.507Z,341
2023-05-22T12:26:59.788Z,32
2023-05-22T12:31:02.538Z,98
2023-05-22T12:33:04.066Z,85
2023-05-22T12:41:09.952Z,198
2023-05-22T12:43:11.165Z,7
2023-05-22T12:49:14.754Z,26
2023-05-22T12:53:17.110Z,4
2023-05-22T12:59:21.167Z,355
2023-05-22T13:03:23.724Z,25
2023-05-22T13:05:25.493Z,148
2023-05-22T13:09:27.803Z,93
2023-05-22T13:13:29.907Z,3
2023-05-22T13:15:31.591Z,21
2023-05-22T13:19:34.034Z,345
2023-05-22T13:25:38.343Z,35
2023-05-22T13:29:40.734Z,102
2023-05-22T13:31:41.630Z,96
2023-05-22T13:35:43.461Z,98
2023-05-22T13:41:46.812Z,74
2023-05-22T13:47:50.511Z,150
2023-05-22T13:51:51.957Z,9
2023-05-22T13:57:55.296Z,101
2023-05-22T14:01:58.134Z,101
2023-05-22T14:03:59.083Z,23
2023-05-22T14:08:01.091Z,141
2023-05-22T14:10:02.768Z,134
2023-05-22T14:14:05.038Z,87
2023-05-22T14:18:07.539Z,85
2023-05-22T14:24:11.388Z,75
2023-05-22T14:28:13.594Z,79
2023-05-22T14:30:15.033Z,360
2023-05-22T14:34:18.206Z,11
2023-05-22T14:40:22.467Z,80
2023-05-22T14:44:24.687Z,96
2023-05-22T14:46:26.030Z,130
2023-05-22T14:50:28.546Z,331
2023-05-22T14:54:30.281Z,27
2023-05-22T14:56:31.216Z,360
2023-05-22T15:00:32.916Z,28
2023-05-22T15:04:34.643Z,29
2023-05-22T15:06:36.016Z,342
2023-05-22T15:10:39.210Z,332
2023-05-22T15:12:40.460Z,344
2023-05-22T15:16:43.190Z,252
2023-05-22T15:22:47.542Z,38
2023-05-22T15:28:51.400Z,9
2023-05-22T15:32:54.196Z,14
2023-05-22T15:38:57.273Z,33
2023-05-22T15:42:59.866Z,13
2023-05-22T15:45:00.683Z,309
2023-05-22T15:49:03.547Z,255
2023-05-22T15:53:06.846Z,315
2023-05-22T15:55:08.471Z,17
2023-05-22T15:59:10.828Z,331
2023-05-22T16:05:14.584Z,342
2023-05-22T16:09:16.359Z,360
2023-05-22T16:11:17.954Z,360
2023-05-22T16:15:19.919Z,354
2023-05-22T16:21:23.127Z,12
2023-05-22T16:27:26.288Z,323
2023-05-22T16:31:29.774Z,255
2023-05-22T16:37:33.417Z,360
2023-05-22T16:41:36.143Z,39
2023-05-22T16:47:40.438Z,41
2023-05-22T16:53:43.853Z,306
2023-05-22T16:57:47.034Z,347
2023-05-22T16:59:48.293Z,309
2023-05-22T17:03:50.329Z,305
2023-05-22T17:09:54.377Z,338
2023-05-22T17:13:56.826Z,12
2023-05-22T17:15:58.219Z,12
2023-05-22T17:20:00.336Z,360
2023-05-22T17:24:02.133Z,258
2023-05-22T17:26:03.159Z,360
2023-05-22T17:30:05.388Z,312
2023-05-22T17:36:09.394Z,321
2023-05-22T17:40:12.121Z,312
2023-05-22T17:42:13.360Z,312
2023-05-22T17:46:15.943Z,312
2023-05-22T17:52:18.886Z,311
2023-05-22T17:56:21.363Z,311
2023-05-22T17:58:23.017Z,311
2023-05-22T18:02:25.675Z,310
2023-05-22T18:06:28.336Z,311
2023-05-22T18:08:29.797Z,319
2023-05-22T18:12:32.348Z,321
2023-05-22T18:16:34.294Z,321
2023-05-22T18:18:35.281Z,321
2023-05-22T18:22:38.601Z,321
2023-05-22T18:24:39.937Z,321
2023-05-22T18:26:40.862Z,90
2023-05-22T18:28:42.082Z,91
2023-05-22T18:34:46.197Z,91
2023-05-22T18:36:47.385Z,91
2023-05-22T18:40:49.776Z,91
2023-05-22T18:44:52.868Z,92
2023-05-22T18:51:15.435Z,92
2023-05-22T18:54:59.863Z,92
2023-05-22T18:57:01.450Z,92
2023-05-22T19:01:04.602Z,83
2023-05-22T19:05:07.001Z,91
2023-05-22T19:07:08.180Z,29
2023-05-22T19:11:55.035Z,261
2023-05-22T19:15:57.454Z,261
2023-05-22T19:17:58.931Z,261
2023-05-22T19:22:01.025Z,261
2023-05-22T19:28:04.568Z,261
2023-05-22T19:32:07.120Z,261
2023-05-22T19:34:08.631Z,131
2023-05-22T19:38:11.370Z,60
2023-05-22T19:42:13.323Z,25
2023-05-22T19:44:14.602Z,25
2023-05-22T19:48:17.847Z,25
2023-05-22T19:54:21.762Z,25
2023-05-22T19:58:24.983Z,25
2023-05-22T20:00:26.082Z,25
2023-05-22T20:04:29.173Z,25
2023-05-22T20:10:33.474Z,26
2023-05-22T20:16:37.462Z,26
2023-05-22T20:20:40.877Z,26
2023-05-22T20:24:43.767Z,26
2023-05-22T20:26:45.576Z,26
2023-05-22T20:30:48.624Z,26
2023-05-22T20:34:51.650Z,26
2023-05-22T20:36:52.778Z,26
2023-05-22T20:40:55.214Z,26
2023-05-22T20:42:56.552Z,26
2023-05-22T20:44:57.482Z,26
2023-05-22T20:46:59.196Z,26
2023-05-22T20:53:02.857Z,26
2023-05-22T20:59:07.411Z,26
2023-05-22T21:03:10.242Z,26
2023-05-22T21:09:13.273Z,26
2023-05-22T21:13:16.357Z,26
2023-05-22T21:15:17.264Z,26
2023-05-22T21:19:20.141Z,26
2023-05-22T21:23:24.604Z,26
2023-05-22T21:25:24.772Z,26
2023-05-22T21:29:27.541Z,26
2023-05-22T21:35:30.330Z,26
2023-05-22T21:39:32.208Z,26
2023-05-22T21:41:33.197Z,26
2023-05-22T21:45:36.038Z,26
2023-05-22T21:51:40.654Z,26
2023-05-22T21:55:43.088Z,26
2023-05-22T21:57:44.315Z,26
2023-05-22T22:01:46.896Z,26
2023-05-22T22:05:49.840Z,26
2023-05-22T22:07:51.479Z,26
2023-05-22T22:11:54.475Z,26
2023-05-22T22:17:59.708Z,26
2023-05-22T22:22:01.918Z,26
2023-05-22T22:24:02.790Z,26
2023-05-22T22:28:05.625Z,26
2023-05-22T22:34:10.547Z,26
2023-05-22T22:40:14.518Z,26
2023-05-22T22:44:25.395Z,26
2023-05-22T22:50:21.758Z,26
2023-05-22T22:54:24.229Z,27
2023-05-22T22:58:26.376Z,27
2023-05-22T23:00:27.632Z,27
2023-05-22T23:04:30.845Z,27
2023-05-22T23:06:32.454Z,27
2023-05-22T23:08:33.455Z,27
2023-05-22T23:10:34.680Z,27
2023-05-22T23:16:38.045Z,27
2023-05-22T23:22:41.877Z,27
2023-05-22T23:26:44.509Z,26
2023-05-22T23:32:48.195Z,26
2023-05-22T23:36:50.587Z,26
2023-05-22T23:38:52.291Z,26
2023-05-22T23:42:55.369Z,26
2023-05-22T23:46:58.179Z,26
2023-05-22T23:48:59.248Z,26
2023-05-22T23:53:02.905Z,26
2023-05-22T23:59:06.715Z,26
